Time;durP1;ratioP1;P1;durP2;ratioP2;P2;SDS_P1;SDS_P2;PMS_P1;PMS_P2;Temp;Humidity;BMP_temperature;BMP_pressure;BME280_temperature;BME280_humidity;BME280_pressure;Samples;Min_cycle;Max_cycle;Signal;HPM_P1;HPM_P2
2022/10/20 00:00:00;;;;;;;28.67;15.53;;;;;;;;;;5030560;28;20033;-60
2022/10/20 00:02:25;;;;;;;13.57;9.03;;;;;;;;;;5028977;28;20796;-60
2022/10/20 00:04:50;;;;;;;9.83;7.77;;;;;;;;;;5030897;28;20018;-61
2022/10/20 00:07:15;;;;;;;11.57;9.18;;;;;;;;;;5028990;28;20827;-60
2022/10/20 00:09:41;;;;;;;9.07;8.18;;;;;;;;;;5030143;28;20033;-61
2022/10/20 00:12:06;;;;;;;13.40;8.55;;;;;;;;;;5029099;28;20095;-60
2022/10/20 00:14:31;;;;;;;9.60;6.97;;;;;;;;;;5030065;28;20500;-61
2022/10/20 00:16:57;;;;;;;11.35;8.18;;;;;;;;;;5028915;28;20080;-60
2022/10/20 00:19:22;;;;;;;9.52;7.57;;;;;;;;;;5030514;28;20024;-60
2022/10/20 00:21:47;;;;;;;12.63;9.10;;;;;;;;;;5028864;28;20029;-60
2022/10/20 00:24:12;;;;;;;8.95;8.05;;;;;;;;;;5030026;28;20571;-61
2022/10/20 00:26:37;;;;;;;12.23;8.60;;;;;;;;;;5029024;28;20025;-61
2022/10/20 00:29:03;;;;;;;14.53;9.63;;;;;;;;;;5030290;28;20465;-61
2022/10/20 00:31:28;;;;;;;17.15;7.70;;;;;;;;;;5029185;28;20049;-60
2022/10/20 00:33:53;;;;;;;17.37;8.67;;;;;;;;;;5030315;28;20029;-61
2022/10/20 00:36:19;;;;;;;9.07;6.37;;;;;;;;;;5029757;28;20550;-60
2022/10/20 00:38:44;;;;;;;9.48;7.43;;;;;;;;;;5028525;28;20045;-61
2022/10/20 00:41:12;;;;;;;12.87;7.60;;;;;;;;;;5030447;28;20056;-61
2022/10/20 00:43:43;;;;;;;12.07;7.95;;;;;;;;;;5029752;28;20063;-60
2022/10/20 00:46:09;;;;;;;14.05;7.75;;;;;;;;;;5034162;28;20022;-60
2022/10/20 00:48:34;;;;;;;8.43;7.63;;;;;;;;;;5032305;28;20152;-61
2022/10/20 00:51:00;;;;;;;13.35;7.75;;;;;;;;;;5033189;28;20111;-59
2022/10/20 00:53:26;;;;;;;8.77;7.45;;;;;;;;;;5031970;28;20045;-59
2022/10/20 00:55:53;;;;;;;13.43;7.88;;;;;;;;;;5033798;28;20107;-59
2022/10/20 00:58:18;;;;;;;13.07;7.45;;;;;;;;;;5031824;28;20412;-59
2022/10/20 01:00:46;;;;;;;8.07;6.97;;;;;;;;;;5033547;28;20021;-59
2022/10/20 01:03:32;;;;;;;14.18;8.05;;;;;;;;;;5032134;28;20475;-59
2022/10/20 01:05:57;;;;;;;7.78;7.00;;;;;;;;;;5025321;28;20030;-59
2022/10/20 01:08:22;;;;;;;10.90;7.40;;;;;;;;;;5031655;28;20034;-59
2022/10/20 01:10:53;;;;;;;9.68;7.38;;;;;;;;;;5033723;28;20448;-59
2022/10/20 01:13:21;;;;;;;9.43;6.70;;;;;;;;;;5031717;28;20041;-59
2022/10/20 01:16:06;;;;;;;10.35;7.95;;;;;;;;;;5033265;28;20091;-59
2022/10/20 01:18:42;;;;;;;11.98;7.78;;;;;;;;;;4998108;28;20067;-59
2022/10/20 01:21:07;;;;;;;10.48;8.05;;;;;;;;;;5013118;28;20118;-59
2022/10/20 01:23:41;;;;;;;11.45;7.25;;;;;;;;;;5024615;28;20136;-59
2022/10/20 01:26:07;;;;;;;12.35;8.90;;;;;;;;;;5033363;28;20376;-59
2022/10/20 01:28:32;;;;;;;11.15;9.15;;;;;;;;;;5031282;28;20400;-59
2022/10/20 01:31:00;;;;;;;9.52;8.38;;;;;;;;;;5033074;28;20372;-59
2022/10/20 01:33:38;;;;;;;11.55;8.50;;;;;;;;;;5031198;28;20033;-59
2022/10/20 01:36:06;;;;;;;10.23;8.05;;;;;;;;;;5032701;28;20129;-59
2022/10/20 01:38:47;;;;;;;10.07;7.70;;;;;;;;;;5031154;28;20557;-59
2022/10/20 01:41:32;;;;;;;10.02;7.45;;;;;;;;;;5032773;28;20035;-59
2022/10/20 01:43:58;;;;;;;33.33;10.23;;;;;;;;;;5030831;28;20115;-59
2022/10/20 01:46:24;;;;;;;13.30;8.88;;;;;;;;;;5031353;28;20114;-59
2022/10/20 01:48:49;;;;;;;8.85;8.05;;;;;;;;;;5032523;28;20775;-60
2022/10/20 01:51:15;;;;;;;11.95;8.80;;;;;;;;;;5032255;28;20021;-60
2022/10/20 01:53:40;;;;;;;10.73;7.32;;;;;;;;;;5030959;28;20120;-60
2022/10/20 01:56:05;;;;;;;9.53;8.17;;;;;;;;;;5032705;28;20017;-60
2022/10/20 01:58:44;;;;;;;9.85;7.45;;;;;;;;;;5030519;28;20061;-60
2022/10/20 02:01:16;;;;;;;12.45;7.60;;;;;;;;;;5032543;28;20025;-60
2022/10/20 02:03:52;;;;;;;10.05;6.78;;;;;;;;;;5030734;28;20523;-60
2022/10/20 02:06:38;;;;;;;12.45;7.90;;;;;;;;;;5032901;28;20399;-60
2022/10/20 02:09:05;;;;;;;8.35;7.28;;;;;;;;;;5023361;28;20029;-60
2022/10/20 02:11:30;;;;;;;10.18;8.23;;;;;;;;;;5030088;28;20075;-60
2022/10/20 02:13:56;;;;;;;11.10;7.10;;;;;;;;;;5032259;28;20029;-60
2022/10/20 02:16:43;;;;;;;21.33;8.85;;;;;;;;;;5030333;28;20021;-60
2022/10/20 02:19:10;;;;;;;12.35;7.40;;;;;;;;;;5031814;28;20033;-60
2022/10/20 02:21:35;;;;;;;7.65;6.75;;;;;;;;;;5030158;28;20029;-60
2022/10/20 02:24:02;;;;;;;15.43;8.60;;;;;;;;;;5032060;28;20052;-59
2022/10/20 02:26:29;;;;;;;9.32;8.48;;;;;;;;;;5030225;28;20381;-60
2022/10/20 02:28:57;;;;;;;14.60;7.85;;;;;;;;;;5012187;28;20033;-60
2022/10/20 02:31:23;;;;;;;8.65;7.85;;;;;;;;;;5028025;28;20078;-59
2022/10/20 02:33:48;;;;;;;8.38;7.35;;;;;;;;;;5031683;28;20033;-60
2022/10/20 02:36:18;;;;;;;12.15;8.30;;;;;;;;;;5031772;28;20077;-60
2022/10/20 02:38:43;;;;;;;11.68;7.88;;;;;;;;;;5029796;28;20040;-60
2022/10/20 02:41:08;;;;;;;12.67;7.17;;;;;;;;;;5031242;28;20038;-60
2022/10/20 02:43:33;;;;;;;20.77;9.73;;;;;;;;;;5029917;28;20490;-59
2022/10/20 02:45:58;;;;;;;7.97;7.23;;;;;;;;;;5031949;28;20064;-59
2022/10/20 02:48:24;;;;;;;7.93;7.23;;;;;;;;;;5029594;28;20541;-60
2022/10/20 02:50:49;;;;;;;11.77;8.98;;;;;;;;;;5031823;28;20014;-59
2022/10/20 02:53:14;;;;;;;12.47;8.07;;;;;;;;;;5030162;28;20038;-59
2022/10/20 02:55:40;;;;;;;11.77;7.33;;;;;;;;;;5031067;28;20393;-60
2022/10/20 02:58:05;;;;;;;11.50;8.88;;;;;;;;;;5029720;28;20046;-60
2022/10/20 03:00:30;;;;;;;13.57;9.07;;;;;;;;;;5031147;28;20037;-59
2022/10/20 03:02:56;;;;;;;12.57;8.45;;;;;;;;;;5029925;28;20518;-59
2022/10/20 03:05:21;;;;;;;11.68;7.88;;;;;;;;;;5031031;28;20017;-61
2022/10/20 03:07:46;;;;;;;12.38;9.15;;;;;;;;;;5029100;28;20037;-59
2022/10/20 03:10:11;;;;;;;15.55;9.90;;;;;;;;;;5031471;28;20020;-57
2022/10/20 03:12:36;;;;;;;13.57;8.60;;;;;;;;;;5029295;28;20547;-59
2022/10/20 03:15:02;;;;;;;13.65;10.88;;;;;;;;;;5031321;28;20018;-59
2022/10/20 03:17:27;;;;;;;10.25;8.48;;;;;;;;;;5029487;28;20037;-59
2022/10/20 03:19:52;;;;;;;13.40;8.85;;;;;;;;;;5030737;28;20424;-59
2022/10/20 03:22:17;;;;;;;10.32;8.13;;;;;;;;;;5029566;28;20037;-58
2022/10/20 03:24:42;;;;;;;10.45;9.38;;;;;;;;;;5030765;28;20021;-59
2022/10/20 03:27:07;;;;;;;11.75;8.05;;;;;;;;;;5029085;28;20552;-59
2022/10/20 03:29:32;;;;;;;8.57;7.77;;;;;;;;;;5031057;28;20084;-59
2022/10/20 03:31:58;;;;;;;10.20;9.27;;;;;;;;;;5029785;28;20038;-59
2022/10/20 03:34:23;;;;;;;12.77;8.43;;;;;;;;;;5030513;28;20049;-59
2022/10/20 03:36:48;;;;;;;10.57;8.40;;;;;;;;;;5029284;28;20045;-59
2022/10/20 03:39:13;;;;;;;10.47;8.80;;;;;;;;;;5030898;28;20423;-59
2022/10/20 03:41:38;;;;;;;10.70;9.57;;;;;;;;;;5028805;28;20800;-59
2022/10/20 03:44:03;;;;;;;11.07;9.97;;;;;;;;;;5030786;28;20029;-58
2022/10/20 03:46:29;;;;;;;15.98;11.55;;;;;;;;;;5029303;28;20416;-59
2022/10/20 03:48:54;;;;;;;11.73;9.40;;;;;;;;;;5030626;28;20013;-59
2022/10/20 03:51:19;;;;;;;12.50;9.30;;;;;;;;;;5030841;28;20440;-59
2022/10/20 03:53:44;;;;;;;18.52;10.52;;;;;;;;;;5029058;28;20128;-59
2022/10/20 03:56:11;;;;;;;15.45;11.05;;;;;;;;;;5030270;28;20064;-59
2022/10/20 03:58:36;;;;;;;11.55;10.45;;;;;;;;;;5028592;28;20065;-59
2022/10/20 04:01:02;;;;;;;10.07;8.85;;;;;;;;;;5030814;28;20554;-59
2022/10/20 04:03:27;;;;;;;10.95;9.35;;;;;;;;;;5028760;28;20054;-59
2022/10/20 04:05:52;;;;;;;12.88;9.13;;;;;;;;;;5030282;28;20048;-59
2022/10/20 04:08:18;;;;;;;12.37;10.23;;;;;;;;;;5029348;28;20077;-59
2022/10/20 04:10:43;;;;;;;19.97;11.43;;;;;;;;;;5030039;28;20416;-59
2022/10/20 04:13:08;;;;;;;12.82;9.88;;;;;;;;;;5029004;28;20456;-60
2022/10/20 04:15:33;;;;;;;12.82;10.68;;;;;;;;;;5030458;28;20072;-59
2022/10/20 04:17:58;;;;;;;16.27;10.77;;;;;;;;;;5029369;28;20445;-59
2022/10/20 04:20:24;;;;;;;14.73;11.07;;;;;;;;;;5033976;28;20436;-59
2022/10/20 04:22:49;;;;;;;10.27;9.05;;;;;;;;;;5032392;28;20510;-59
2022/10/20 04:25:14;;;;;;;14.98;11.40;;;;;;;;;;5034040;28;20028;-59
2022/10/20 04:27:40;;;;;;;17.25;11.75;;;;;;;;;;5032242;28;20041;-59
2022/10/20 04:30:05;;;;;;;12.70;11.43;;;;;;;;;;5034419;28;20393;-59
2022/10/20 04:32:30;;;;;;;13.48;9.98;;;;;;;;;;5032271;28;20125;-58
2022/10/20 04:34:56;;;;;;;12.93;11.13;;;;;;;;;;5034145;28;20554;-60
2022/10/20 04:37:21;;;;;;;17.58;13.05;;;;;;;;;;5032636;28;20041;-59
2022/10/20 04:39:46;;;;;;;17.20;12.33;;;;;;;;;;5033651;28;20047;-59
2022/10/20 04:42:11;;;;;;;13.47;12.17;;;;;;;;;;5032163;28;20041;-59
2022/10/20 04:44:36;;;;;;;14.93;11.57;;;;;;;;;;5033844;28;20032;-59
2022/10/20 04:47:01;;;;;;;17.13;11.87;;;;;;;;;;5032268;28;20061;-59
2022/10/20 04:49:27;;;;;;;17.13;13.70;;;;;;;;;;5033770;28;20021;-59
2022/10/20 04:51:52;;;;;;;14.63;11.23;;;;;;;;;;5031987;28;20580;-60
2022/10/20 04:54:17;;;;;;;15.07;12.23;;;;;;;;;;5033625;28;20018;-59
2022/10/20 04:56:42;;;;;;;20.35;13.77;;;;;;;;;;5031960;28;20098;-59
2022/10/20 04:59:07;;;;;;;16.40;13.10;;;;;;;;;;5033786;28;20503;-59
2022/10/20 05:01:33;;;;;;;14.95;13.32;;;;;;;;;;5031673;28;20420;-58
2022/10/20 05:03:58;;;;;;;19.08;13.02;;;;;;;;;;5032660;28;20021;-60
2022/10/20 05:06:27;;;;;;;17.73;13.20;;;;;;;;;;5031686;28;20018;-59
2022/10/20 05:08:53;;;;;;;17.80;16.00;;;;;;;;;;5033363;28;20047;-59
2022/10/20 05:11:19;;;;;;;25.75;15.68;;;;;;;;;;5033508;28;20024;-59
2022/10/20 05:13:45;;;;;;;17.95;14.15;;;;;;;;;;5032077;28;20041;-60
2022/10/20 05:16:10;;;;;;;17.58;14.80;;;;;;;;;;5033178;28;20370;-59
2022/10/20 05:18:36;;;;;;;18.38;15.23;;;;;;;;;;5031458;28;20033;-59
2022/10/20 05:21:06;;;;;;;15.40;13.90;;;;;;;;;;5032947;28;20411;-58
2022/10/20 05:23:31;;;;;;;18.20;14.82;;;;;;;;;;5031429;28;20496;-59
2022/10/20 05:25:56;;;;;;;19.67;15.57;;;;;;;;;;5033067;28;20097;-59
2022/10/20 05:28:21;;;;;;;21.00;15.82;;;;;;;;;;5031783;28;20341;-60
2022/10/20 05:30:46;;;;;;;20.40;16.17;;;;;;;;;;5032247;28;20022;-60
2022/10/20 05:33:11;;;;;;;22.70;16.58;;;;;;;;;;5031116;28;20033;-60
2022/10/20 05:35:37;;;;;;;19.08;15.05;;;;;;;;;;5032814;28;20034;-60
2022/10/20 05:38:02;;;;;;;19.25;15.00;;;;;;;;;;5031369;28;20117;-60
2022/10/20 05:40:27;;;;;;;34.87;18.27;;;;;;;;;;5032353;28;20025;-60
2022/10/20 05:42:52;;;;;;;27.87;16.43;;;;;;;;;;5031383;28;20444;-60
2022/10/20 05:45:17;;;;;;;22.25;16.70;;;;;;;;;;5032395;28;20499;-59
2022/10/20 05:47:43;;;;;;;20.55;17.60;;;;;;;;;;5030515;28;20052;-60
2022/10/20 05:50:08;;;;;;;21.67;16.70;;;;;;;;;;5032777;28;20061;-59
2022/10/20 05:52:34;;;;;;;19.15;15.38;;;;;;;;;;5030590;28;20041;-58
2022/10/20 05:54:59;;;;;;;19.48;17.48;;;;;;;;;;5031909;28;20018;-57
2022/10/20 05:57:24;;;;;;;22.83;16.67;;;;;;;;;;5031104;28;20037;-57
2022/10/20 05:59:49;;;;;;;18.05;15.52;;;;;;;;;;5032358;28;20424;-57
2022/10/20 06:02:14;;;;;;;18.05;15.93;;;;;;;;;;5025393;28;20038;-57
2022/10/20 06:04:39;;;;;;;20.83;18.55;;;;;;;;;;5031025;28;20421;-57
2022/10/20 06:07:05;;;;;;;23.20;18.38;;;;;;;;;;5030525;28;20042;-57
2022/10/20 06:09:30;;;;;;;24.30;16.30;;;;;;;;;;5031420;28;20025;-57
2022/10/20 06:11:55;;;;;;;19.67;16.67;;;;;;;;;;5030520;28;20748;-57
2022/10/20 06:14:21;;;;;;;21.55;17.30;;;;;;;;;;5032562;28;20024;-57
2022/10/20 06:16:48;;;;;;;17.77;15.93;;;;;;;;;;5030635;28;20044;-57
2022/10/20 06:19:13;;;;;;;24.10;15.85;;;;;;;;;;5032362;28;20018;-57
2022/10/20 06:21:38;;;;;;;18.50;16.60;;;;;;;;;;5029621;28;20082;-58
2022/10/20 06:24:04;;;;;;;18.13;16.15;;;;;;;;;;5031560;28;20467;-57
2022/10/20 06:26:31;;;;;;;20.63;16.60;;;;;;;;;;5029672;28;20082;-57
2022/10/20 06:28:57;;;;;;;17.75;15.48;;;;;;;;;;5031952;28;20032;-57
2022/10/20 06:31:27;;;;;;;30.40;19.33;;;;;;;;;;5029947;28;20025;-57
2022/10/20 06:33:52;;;;;;;18.55;16.60;;;;;;;;;;5032225;28;20061;-57
2022/10/20 06:36:18;;;;;;;14.65;13.15;;;;;;;;;;5028482;28;20650;-57
2022/10/20 06:38:43;;;;;;;19.08;16.05;;;;;;;;;;5026889;28;20103;-57
2022/10/20 06:41:13;;;;;;;17.85;15.77;;;;;;;;;;5030599;28;20021;-57
2022/10/20 06:43:39;;;;;;;19.80;16.55;;;;;;;;;;5028518;28;20527;-57
2022/10/20 06:46:07;;;;;;;22.83;16.20;;;;;;;;;;5030718;28;20026;-57
2022/10/20 06:48:32;;;;;;;17.17;14.77;;;;;;;;;;5029495;28;20827;-57
2022/10/20 06:50:59;;;;;;;17.42;15.63;;;;;;;;;;5031709;28;20444;-57
2022/10/20 06:53:24;;;;;;;25.23;16.85;;;;;;;;;;5029410;28;20029;-57
2022/10/20 06:55:56;;;;;;;16.50;14.05;;;;;;;;;;5028804;28;20124;-57
2022/10/20 06:58:22;;;;;;;17.73;15.32;;;;;;;;;;5027956;28;20091;-57
2022/10/20 07:00:47;;;;;;;16.88;15.18;;;;;;;;;;5031034;28;20021;-57
2022/10/20 07:03:12;;;;;;;22.87;16.20;;;;;;;;;;5029585;28;20033;-57
2022/10/20 07:05:37;;;;;;;16.10;14.48;;;;;;;;;;5030647;28;20037;-57
2022/10/20 07:08:02;;;;;;;18.58;16.42;;;;;;;;;;5028232;28;20604;-57
2022/10/20 07:10:27;;;;;;;15.23;13.73;;;;;;;;;;5030540;28;20018;-57
2022/10/20 07:12:53;;;;;;;18.50;13.30;;;;;;;;;;5028631;28;20056;-57
2022/10/20 07:15:18;;;;;;;15.65;13.95;;;;;;;;;;5027447;28;20037;-57
2022/10/20 07:17:44;;;;;;;15.75;14.23;;;;;;;;;;5030814;28;20542;-57
2022/10/20 07:20:09;;;;;;;19.35;14.82;;;;;;;;;;5029781;28;20060;-57
2022/10/20 07:22:35;;;;;;;15.57;14.00;;;;;;;;;;5036473;28;20040;-57
2022/10/20 07:25:05;;;;;;;16.00;13.00;;;;;;;;;;5043431;28;20456;-57
2022/10/20 07:27:30;;;;;;;24.13;15.30;;;;;;;;;;5027362;28;20033;-57
2022/10/20 07:29:55;;;;;;;16.70;13.68;;;;;;;;;;5029436;28;20030;-57
2022/10/20 07:32:20;;;;;;;15.45;13.63;;;;;;;;;;5028764;28;20025;-57
2022/10/20 07:34:45;;;;;;;14.40;13.10;;;;;;;;;;5028037;28;20034;-57
2022/10/20 07:37:10;;;;;;;15.18;13.43;;;;;;;;;;5028442;28;20452;-57
2022/10/20 07:39:35;;;;;;;14.13;12.27;;;;;;;;;;5030165;28;20421;-57
2022/10/20 07:42:01;;;;;;;19.20;13.30;;;;;;;;;;5027600;28;20045;-57
2022/10/20 07:44:26;;;;;;;16.30;11.52;;;;;;;;;;5029079;28;20460;-57
2022/10/20 07:46:51;;;;;;;13.35;11.18;;;;;;;;;;5027781;28;20045;-57
2022/10/20 07:49:16;;;;;;;17.47;12.63;;;;;;;;;;5029355;28;20021;-58
2022/10/20 07:51:41;;;;;;;12.48;11.10;;;;;;;;;;5028484;28;20450;-57
2022/10/20 07:54:07;;;;;;;17.13;11.27;;;;;;;;;;5033535;28;20060;-57
2022/10/20 07:56:37;;;;;;;13.15;11.88;;;;;;;;;;5029139;28;20029;-57
2022/10/20 07:59:02;;;;;;;12.73;11.35;;;;;;;;;;5033165;28;20427;-58
2022/10/20 08:01:27;;;;;;;14.40;12.90;;;;;;;;;;5031762;28;20029;-57
2022/10/20 08:03:53;;;;;;;13.52;12.15;;;;;;;;;;5031496;28;20065;-57
2022/10/20 08:06:18;;;;;;;16.20;12.57;;;;;;;;;;5032965;28;20022;-58
2022/10/20 08:08:43;;;;;;;14.07;12.67;;;;;;;;;;5031894;28;20040;-57
2022/10/20 08:11:09;;;;;;;18.58;11.77;;;;;;;;;;5033026;28;20448;-57
2022/10/20 08:13:34;;;;;;;14.27;11.73;;;;;;;;;;5031919;28;20029;-57
2022/10/20 08:16:00;;;;;;;11.73;9.90;;;;;;;;;;5032667;28;20365;-58
2022/10/20 08:18:25;;;;;;;13.73;10.10;;;;;;;;;;5030742;28;20029;-58
2022/10/20 08:20:50;;;;;;;12.45;11.13;;;;;;;;;;5033625;28;20017;-58
2022/10/20 08:23:16;;;;;;;21.07;14.63;;;;;;;;;;5030507;28;20042;-57
2022/10/20 08:25:41;;;;;;;12.45;10.88;;;;;;;;;;5033237;28;20021;-57
2022/10/20 08:28:06;;;;;;;13.93;10.30;;;;;;;;;;5031428;28;20120;-58
2022/10/20 08:30:32;;;;;;;12.15;10.43;;;;;;;;;;5033055;28;20021;-57
2022/10/20 08:32:57;;;;;;;12.20;9.07;;;;;;;;;;5031540;28;20113;-57
2022/10/20 08:35:22;;;;;;;20.83;9.87;;;;;;;;;;5031994;28;20038;-58
2022/10/20 08:37:48;;;;;;;21.25;11.93;;;;;;;;;;5032201;28;20132;-57
2022/10/20 08:40:18;;;;;;;9.50;8.68;;;;;;;;;;5033924;28;20044;-57
2022/10/20 08:42:44;;;;;;;10.65;9.57;;;;;;;;;;5030331;28;20489;-57
2022/10/20 08:45:14;;;;;;;19.75;11.20;;;;;;;;;;5033024;28;20033;-57
2022/10/20 08:47:39;;;;;;;11.15;9.13;;;;;;;;;;5031884;28;20443;-57
2022/10/20 08:50:06;;;;;;;10.93;9.90;;;;;;;;;;5032245;28;20119;-57
2022/10/20 08:52:31;;;;;;;12.00;9.55;;;;;;;;;;5022361;28;20605;-57
2022/10/20 08:54:56;;;;;;;11.05;10.05;;;;;;;;;;5032671;28;20104;-58
2022/10/20 08:57:23;;;;;;;14.17;10.07;;;;;;;;;;5030570;28;20038;-57
2022/10/20 08:59:52;;;;;;;9.77;8.77;;;;;;;;;;5032938;28;20476;-57
2022/10/20 09:02:17;;;;;;;;;;;;;;;;;;5031448;28;20546;-57
2022/10/20 09:04:48;;;;;;;10.70;9.63;;;;;;;;;;5030715;28;20419;-57
2022/10/20 09:07:33;;;;;;;11.13;9.05;;;;;;;;;;5031537;28;20056;-57
2022/10/20 09:10:11;;;;;;;10.27;9.00;;;;;;;;;;5033073;28;20026;-57
2022/10/20 09:12:38;;;;;;;17.52;10.48;;;;;;;;;;5028247;28;20038;-58
2022/10/20 09:15:03;;;;;;;11.98;8.77;;;;;;;;;;5030060;28;20033;-58
2022/10/20 09:17:29;;;;;;;8.48;7.57;;;;;;;;;;5030804;28;20442;-57
2022/10/20 09:19:55;;;;;;;10.20;8.23;;;;;;;;;;5031592;28;20029;-58
2022/10/20 09:22:23;;;;;;;9.15;7.57;;;;;;;;;;5030662;28;20041;-58
2022/10/20 09:24:50;;;;;;;9.70;7.93;;;;;;;;;;5032056;28;20029;-58
2022/10/20 09:27:18;;;;;;;12.85;6.80;;;;;;;;;;5030001;28;20042;-58
2022/10/20 09:29:44;;;;;;;8.52;6.80;;;;;;;;;;5032219;28;20091;-58
2022/10/20 09:32:39;;;;;;;7.95;6.15;;;;;;;;;;5031175;28;20044;-58
2022/10/20 09:35:12;;;;;;;7.55;6.68;;;;;;;;;;5027579;28;20671;-58
2022/10/20 09:37:37;;;;;;;9.45;7.40;;;;;;;;;;5029782;28;20037;-57
2022/10/20 09:40:02;;;;;;;8.05;7.25;;;;;;;;;;5032184;28;20056;-58
2022/10/20 09:42:29;;;;;;;7.28;6.40;;;;;;;;;;5025804;28;20034;-59
2022/10/20 09:44:59;;;;;;;8.60;6.97;;;;;;;;;;5031460;28;20021;-58
2022/10/20 09:47:25;;;;;;;11.77;8.07;;;;;;;;;;5011071;28;20485;-58
2022/10/20 09:49:56;;;;;;;9.63;7.47;;;;;;;;;;5031624;28;20018;-59
2022/10/20 09:52:23;;;;;;;11.43;6.85;;;;;;;;;;5030174;28;20041;-59
2022/10/20 09:54:49;;;;;;;8.55;7.20;;;;;;;;;;5031933;28;20554;-59
2022/10/20 09:57:18;;;;;;;8.07;7.28;;;;;;;;;;5031018;28;20116;-59
2022/10/20 09:59:49;;;;;;;8.18;5.50;;;;;;;;;;5031416;28;20021;-58
2022/10/20 10:02:14;;;;;;;10.93;6.97;;;;;;;;;;5029930;28;20128;-58
2022/10/20 10:04:43;;;;;;;10.18;7.30;;;;;;;;;;5031097;28;20105;-59
2022/10/20 10:07:20;;;;;;;8.00;7.22;;;;;;;;;;5030155;28;20678;-59
2022/10/20 10:09:55;;;;;;;8.63;7.13;;;;;;;;;;5031310;28;20072;-59
2022/10/20 10:12:22;;;;;;;11.27;7.35;;;;;;;;;;5030518;28;20107;-59
2022/10/20 10:14:52;;;;;;;11.45;7.70;;;;;;;;;;5032178;28;20025;-59
2022/10/20 10:17:29;;;;;;;8.00;7.20;;;;;;;;;;5029749;28;20038;-59
2022/10/20 10:19:54;;;;;;;9.00;8.10;;;;;;;;;;5031887;28;20049;-59
2022/10/20 10:22:19;;;;;;;8.73;7.27;;;;;;;;;;5029163;28;20523;-58
2022/10/20 10:24:46;;;;;;;9.97;8.20;;;;;;;;;;5031302;28;20598;-59
2022/10/20 10:27:19;;;;;;;8.52;6.82;;;;;;;;;;5029404;28;20476;-59
2022/10/20 10:29:44;;;;;;;18.13;9.45;;;;;;;;;;5021207;28;20101;-59
2022/10/20 10:32:18;;;;;;;8.47;7.53;;;;;;;;;;5029829;28;20044;-59
2022/10/20 10:35:01;;;;;;;19.30;10.40;;;;;;;;;;5030493;28;20045;-59
2022/10/20 10:37:27;;;;;;;9.45;8.45;;;;;;;;;;5030216;28;20121;-59
2022/10/20 10:39:52;;;;;;;13.65;9.93;;;;;;;;;;5031861;28;20112;-59
2022/10/20 10:42:35;;;;;;;13.40;8.77;;;;;;;;;;5029323;28;20556;-58
2022/10/20 10:45:11;;;;;;;15.70;8.65;;;;;;;;;;5031341;28;20638;-59
2022/10/20 10:47:55;;;;;;;10.30;9.15;;;;;;;;;;5029484;28;20029;-59
2022/10/20 10:50:37;;;;;;;15.10;10.60;;;;;;;;;;5030926;28;20022;-59
2022/10/20 10:53:04;;;;;;;16.05;9.52;;;;;;;;;;5029273;28;20487;-59
2022/10/20 10:55:37;;;;;;;12.27;9.93;;;;;;;;;;5019013;28;20029;-59
2022/10/20 10:58:10;;;;;;;13.77;8.27;;;;;;;;;;5009692;28;20037;-58
2022/10/20 11:00:43;;;;;;;11.45;9.35;;;;;;;;;;5022972;28;20049;-59
2022/10/20 11:03:17;;;;;;;12.43;10.25;;;;;;;;;;5029643;28;20132;-59
2022/10/20 11:05:45;;;;;;;21.50;11.88;;;;;;;;;;5030631;28;20018;-59
2022/10/20 11:08:16;;;;;;;9.90;9.00;;;;;;;;;;5029151;28;20061;-59
2022/10/20 11:11:00;;;;;;;10.85;9.43;;;;;;;;;;5034040;28;20032;-58
2022/10/20 11:13:42;;;;;;;11.90;10.68;;;;;;;;;;5025504;28;20064;-58
2022/10/20 11:16:28;;;;;;;8.75;7.93;;;;;;;;;;5030508;28;20033;-58
2022/10/20 11:18:59;;;;;;;16.08;11.30;;;;;;;;;;5029061;28;20032;-58
2022/10/20 11:21:27;;;;;;;15.25;10.63;;;;;;;;;;5028856;28;20032;-58
2022/10/20 11:24:01;;;;;;;10.65;9.68;;;;;;;;;;5030793;28;20021;-58
2022/10/20 11:26:36;;;;;;;11.63;9.68;;;;;;;;;;5028048;28;20662;-59
2022/10/20 11:29:04;;;;;;;14.63;9.55;;;;;;;;;;5030643;28;20092;-58
2022/10/20 11:31:49;;;;;;;13.30;9.10;;;;;;;;;;5029075;28;20445;-58
2022/10/20 11:34:21;;;;;;;12.80;9.98;;;;;;;;;;5029885;28;20116;-58
2022/10/20 11:36:49;;;;;;;19.88;11.35;;;;;;;;;;5024708;28;20100;-58
2022/10/20 11:39:27;;;;;;;11.82;10.63;;;;;;;;;;5029318;28;20017;-59
2022/10/20 11:41:57;;;;;;;20.50;11.60;;;;;;;;;;5027790;28;20556;-58
2022/10/20 11:44:22;;;;;;;14.00;9.52;;;;;;;;;;5028597;28;20048;-58
2022/10/20 11:46:52;;;;;;;12.95;11.63;;;;;;;;;;5028194;28;20033;-58
2022/10/20 11:49:18;;;;;;;12.90;11.00;;;;;;;;;;5028166;28;20022;-58
2022/10/20 11:51:49;;;;;;;15.48;10.05;;;;;;;;;;5024124;28;20037;-58
2022/10/20 11:54:29;;;;;;;14.80;12.10;;;;;;;;;;5030056;28;20500;-58
2022/10/20 11:57:10;;;;;;;16.35;11.02;;;;;;;;;;5026475;28;20037;-57
2022/10/20 11:59:44;;;;;;;12.05;10.85;;;;;;;;;;5030305;28;20104;-58
2022/10/20 12:02:22;;;;;;;11.63;10.52;;;;;;;;;;5029094;28;20041;-58
2022/10/20 12:04:58;;;;;;;14.98;12.07;;;;;;;;;;5029814;28;20535;-58
2022/10/20 12:07:35;;;;;;;24.45;11.10;;;;;;;;;;5028437;28;20034;-58
2022/10/20 12:10:16;;;;;;;21.63;12.93;;;;;;;;;;5029195;28;20100;-59
2022/10/20 12:12:49;;;;;;;25.90;15.00;;;;;;;;;;5020748;28;20033;-58
2022/10/20 12:15:22;;;;;;;17.55;11.35;;;;;;;;;;5029550;28;20104;-58
2022/10/20 12:17:48;;;;;;;17.25;12.00;;;;;;;;;;5018111;28;20041;-58
2022/10/20 12:20:19;;;;;;;15.00;12.27;;;;;;;;;;5030098;28;20455;-58
2022/10/20 12:22:45;;;;;;;16.75;11.93;;;;;;;;;;5028384;28;20033;-65
2022/10/20 12:25:16;;;;;;;21.80;12.93;;;;;;;;;;5030373;28;20035;-58
2022/10/20 12:27:41;;;;;;;14.52;12.75;;;;;;;;;;5027804;28;20033;-58
2022/10/20 12:30:25;;;;;;;23.60;14.05;;;;;;;;;;5028585;28;20022;-58
2022/10/20 12:32:56;;;;;;;25.02;14.10;;;;;;;;;;5027277;28;20036;-58
2022/10/20 12:35:21;;;;;;;16.67;14.30;;;;;;;;;;5027250;28;20157;-58
2022/10/20 12:38:09;;;;;;;18.15;12.85;;;;;;;;;;5029123;28;20046;-58
2022/10/20 12:40:47;;;;;;;16.10;14.25;;;;;;;;;;5032342;28;20022;-58
2022/10/20 12:43:12;;;;;;;;;;;;;;;;;;5037977;28;20044;-58
2022/10/20 12:45:41;;;;;;;17.77;15.70;;;;;;;;;;5031584;28;19925;-58
2022/10/20 12:48:08;;;;;;;20.60;15.05;;;;;;;;;;5031310;28;20030;-58
2022/10/20 12:50:44;;;;;;;17.30;15.38;;;;;;;;;;5032847;28;20469;-58
2022/10/20 12:53:15;;;;;;;26.08;17.35;;;;;;;;;;5031580;28;20518;-58
2022/10/20 12:55:41;;;;;;;18.35;16.55;;;;;;;;;;5032821;28;20059;-58
2022/10/20 12:58:25;;;;;;;20.13;14.93;;;;;;;;;;5031639;28;20042;-59
2022/10/20 13:00:50;;;;;;;22.13;19.25;;;;;;;;;;5032464;28;20736;-58
2022/10/20 13:03:30;;;;;;;17.08;15.32;;;;;;;;;;5030902;28;20393;-58
2022/10/20 13:05:56;;;;;;;29.40;18.63;;;;;;;;;;5032643;28;20022;-58
2022/10/20 13:08:23;;;;;;;28.35;18.77;;;;;;;;;;5031571;28;20030;-58
2022/10/20 13:10:49;;;;;;;22.85;16.95;;;;;;;;;;5032560;28;20083;-59
2022/10/20 13:13:17;;;;;;;25.77;19.33;;;;;;;;;;5031531;28;20493;-59
2022/10/20 13:15:42;;;;;;;27.88;18.08;;;;;;;;;;5032895;28;20586;-58
2022/10/20 13:18:10;;;;;;;28.00;19.88;;;;;;;;;;5031105;28;20489;-58
2022/10/20 13:20:41;;;;;;;26.40;21.77;;;;;;;;;;5032784;28;20029;-58
2022/10/20 13:23:12;;;;;;;32.25;24.13;;;;;;;;;;5031208;28;20054;-58
2022/10/20 13:25:39;;;;;;;29.17;21.40;;;;;;;;;;5031656;28;20119;-58
2022/10/20 13:28:24;;;;;;;34.38;22.88;;;;;;;;;;5030909;28;20042;-59
2022/10/20 13:31:09;;;;;;;36.47;23.67;;;;;;;;;;5032365;28;20033;-58
2022/10/20 13:33:39;;;;;;;39.53;22.05;;;;;;;;;;5030082;28;20512;-58
2022/10/20 13:36:10;;;;;;;35.70;22.38;;;;;;;;;;5031994;28;20038;-58
2022/10/20 13:38:44;;;;;;;34.65;25.10;;;;;;;;;;5030769;28;20053;-58
2022/10/20 13:41:17;;;;;;;33.42;24.25;;;;;;;;;;5032222;28;20113;-58
2022/10/20 13:43:50;;;;;;;32.85;24.23;;;;;;;;;;5030343;28;20512;-58
2022/10/20 13:46:24;;;;;;;31.58;24.08;;;;;;;;;;5032656;28;20032;-57
2022/10/20 13:49:08;;;;;;;30.90;23.25;;;;;;;;;;5031167;28;20049;-58
2022/10/20 13:51:39;;;;;;;31.27;22.23;;;;;;;;;;5026757;28;20025;-58
2022/10/20 13:54:05;;;;;;;30.27;25.83;;;;;;;;;;5032448;28;20029;-58
2022/10/20 13:56:34;;;;;;;30.23;21.30;;;;;;;;;;5030820;28;20108;-58
2022/10/20 13:59:01;;;;;;;30.13;22.13;;;;;;;;;;5032699;28;20025;-58
2022/10/20 14:01:27;;;;;;;34.22;23.67;;;;;;;;;;5030068;28;20033;-57
2022/10/20 14:03:53;;;;;;;26.15;19.80;;;;;;;;;;5031317;28;20025;-57
2022/10/20 14:06:28;;;;;;;28.85;22.33;;;;;;;;;;5013083;28;20014;-58
2022/10/20 14:08:54;;;;;;;24.35;21.42;;;;;;;;;;5024715;28;20034;-58
2022/10/20 14:11:19;;;;;;;30.40;21.90;;;;;;;;;;5029049;28;20097;-57
2022/10/20 14:13:44;;;;;;;28.92;21.85;;;;;;;;;;5030247;28;20100;-57
2022/10/20 14:16:21;;;;;;;31.70;21.60;;;;;;;;;;5028475;28;20052;-58
2022/10/20 14:19:20;;;;;;;26.35;21.65;;;;;;;;;;5020345;28;20041;-58
2022/10/20 14:21:50;;;;;;;31.70;23.42;;;;;;;;;;4979146;28;20033;-57
2022/10/20 14:24:24;;;;;;;30.13;21.90;;;;;;;;;;5031653;28;20025;-57
2022/10/20 14:26:50;;;;;;;26.30;21.77;;;;;;;;;;5030583;28;20030;-58
2022/10/20 14:29:16;;;;;;;29.92;23.13;;;;;;;;;;5031689;28;20083;-57
2022/10/20 14:31:41;;;;;;;24.85;21.60;;;;;;;;;;5029487;28;20029;-57